sensor_id;sensor_type;location;lat;lon;timestamp;temperature;humidity
65203;HTU21D;51788;45.124;38.966;2022-08-19T00:01:47;24.31;79.29
65203;HTU21D;51788;45.124;38.966;2022-08-19T00:04:16;24.24;79.49
65203;HTU21D;51788;45.124;38.966;2022-08-19T00:06:44;24.20;79.56
65203;HTU21D;51788;45.124;38.966;2022-08-19T00:09:12;24.15;79.67
65203;HTU21D;51788;45.124;38.966;2022-08-19T00:11:39;24.08;79.79
65203;HTU21D;51788;45.124;38.966;2022-08-19T00:14:07;23.99;80.04
65203;HTU21D;51788;45.124;38.966;2022-08-19T00:16:36;23.98;80.07
65203;HTU21D;51788;45.124;38.966;2022-08-19T00:19:03;23.97;80.02
65203;HTU21D;51788;45.124;38.966;2022-08-19T00:21:29;23.89;80.23
65203;HTU21D;51788;45.124;38.966;2022-08-19T00:23:55;23.80;80.52
65203;HTU21D;51788;45.124;38.966;2022-08-19T00:26:27;23.74;80.65
65203;HTU21D;51788;45.124;38.966;2022-08-19T00:28:54;23.79;80.56
65203;HTU21D;51788;45.124;38.966;2022-08-19T00:31:20;23.76;80.53
65203;HTU21D;51788;45.124;38.966;2022-08-19T00:33:47;23.74;80.65
65203;HTU21D;51788;45.124;38.966;2022-08-19T00:36:15;23.74;80.66
65203;HTU21D;51788;45.124;38.966;2022-08-19T00:38:41;23.73;80.69
65203;HTU21D;51788;45.124;38.966;2022-08-19T00:41:13;23.68;80.93
65203;HTU21D;51788;45.124;38.966;2022-08-19T00:43:40;23.61;80.93
65203;HTU21D;51788;45.124;38.966;2022-08-19T00:46:07;23.58;81.01
65203;HTU21D;51788;45.124;38.966;2022-08-19T00:48:33;23.53;81.16
65203;HTU21D;51788;45.124;38.966;2022-08-19T00:51:00;23.49;81.27
65203;HTU21D;51788;45.124;38.966;2022-08-19T00:53:28;23.42;81.48
65203;HTU21D;51788;45.124;38.966;2022-08-19T00:55:56;23.35;81.64
65203;HTU21D;51788;45.124;38.966;2022-08-19T00:58:26;23.28;81.81
65203;HTU21D;51788;45.124;38.966;2022-08-19T01:00:53;23.22;81.92
65203;HTU21D;51788;45.124;38.966;2022-08-19T01:03:20;23.13;82.17
65203;HTU21D;51788;45.124;38.966;2022-08-19T01:05:49;23.11;82.26
65203;HTU21D;51788;45.124;38.966;2022-08-19T01:08:17;23.10;82.21
65203;HTU21D;51788;45.124;38.966;2022-08-19T01:10:50;23.11;82.22
65203;HTU21D;51788;45.124;38.966;2022-08-19T01:13:23;23.11;82.21
65203;HTU21D;51788;45.124;38.966;2022-08-19T01:15:54;23.13;82.17
65203;HTU21D;51788;45.124;38.966;2022-08-19T01:18:21;23.17;82.12
65203;HTU21D;51788;45.124;38.966;2022-08-19T01:20:47;23.24;82.04
65203;HTU21D;51788;45.124;38.966;2022-08-19T01:23:14;23.28;82.00
65203;HTU21D;51788;45.124;38.966;2022-08-19T01:25:41;23.29;81.92
65203;HTU21D;51788;45.124;38.966;2022-08-19T01:28:15;23.31;82.02
65203;HTU21D;51788;45.124;38.966;2022-08-19T01:30:41;23.31;81.94
65203;HTU21D;51788;45.124;38.966;2022-08-19T01:33:09;23.32;81.94
65203;HTU21D;51788;45.124;38.966;2022-08-19T01:35:35;23.31;81.95
65203;HTU21D;51788;45.124;38.966;2022-08-19T01:38:05;23.29;82.07
65203;HTU21D;51788;45.124;38.966;2022-08-19T01:40:36;23.27;82.06
65203;HTU21D;51788;45.124;38.966;2022-08-19T01:43:03;23.23;82.16
65203;HTU21D;51788;45.124;38.966;2022-08-19T01:45:32;23.24;82.23
65203;HTU21D;51788;45.124;38.966;2022-08-19T01:47:59;23.23;82.23
65203;HTU21D;51788;45.124;38.966;2022-08-19T01:50:26;23.20;82.29
65203;HTU21D;51788;45.124;38.966;2022-08-19T01:52:52;23.15;82.47
65203;HTU21D;51788;45.124;38.966;2022-08-19T01:55:21;23.14;82.58
65203;HTU21D;51788;45.124;38.966;2022-08-19T01:57:50;23.15;82.58
65203;HTU21D;51788;45.124;38.966;2022-08-19T02:00:19;23.14;82.52
65203;HTU21D;51788;45.124;38.966;2022-08-19T02:02:45;23.14;82.55
65203;HTU21D;51788;45.124;38.966;2022-08-19T02:05:12;23.14;82.58
65203;HTU21D;51788;45.124;38.966;2022-08-19T02:07:39;23.12;82.63
65203;HTU21D;51788;45.124;38.966;2022-08-19T02:10:08;23.12;82.70
65203;HTU21D;51788;45.124;38.966;2022-08-19T02:12:35;23.10;82.68
65203;HTU21D;51788;45.124;38.966;2022-08-19T02:15:01;23.08;82.71
65203;HTU21D;51788;45.124;38.966;2022-08-19T02:17:29;23.06;82.81
65203;HTU21D;51788;45.124;38.966;2022-08-19T02:19:55;23.05;82.88
65203;HTU21D;51788;45.124;38.966;2022-08-19T02:22:23;22.99;83.04
65203;HTU21D;51788;45.124;38.966;2022-08-19T02:24:52;22.97;83.16
65203;HTU21D;51788;45.124;38.966;2022-08-19T02:27:18;22.94;83.25
65203;HTU21D;51788;45.124;38.966;2022-08-19T02:29:47;22.90;83.40
65203;HTU21D;51788;45.124;38.966;2022-08-19T02:32:13;22.91;83.32
65203;HTU21D;51788;45.124;38.966;2022-08-19T02:34:39;22.91;83.39
65203;HTU21D;51788;45.124;38.966;2022-08-19T02:37:05;22.87;83.46
65203;HTU21D;51788;45.124;38.966;2022-08-19T02:39:51;22.87;83.55
65203;HTU21D;51788;45.124;38.966;2022-08-19T02:42:18;22.84;83.57
65203;HTU21D;51788;45.124;38.966;2022-08-19T02:44:44;22.79;83.64
65203;HTU21D;51788;45.124;38.966;2022-08-19T02:47:10;22.78;83.74
65203;HTU21D;51788;45.124;38.966;2022-08-19T02:49:36;22.81;83.75
65203;HTU21D;51788;45.124;38.966;2022-08-19T02:52:02;22.79;83.88
65203;HTU21D;51788;45.124;38.966;2022-08-19T02:54:29;22.80;83.92
65203;HTU21D;51788;45.124;38.966;2022-08-19T02:56:54;22.79;83.91
65203;HTU21D;51788;45.124;38.966;2022-08-19T02:59:20;22.76;84.00
65203;HTU21D;51788;45.124;38.966;2022-08-19T03:01:46;22.75;84.11
65203;HTU21D;51788;45.124;38.966;2022-08-19T03:04:14;22.73;84.03
65203;HTU21D;51788;45.124;38.966;2022-08-19T03:06:43;22.78;83.94
65203;HTU21D;51788;45.124;38.966;2022-08-19T03:09:10;22.79;84.00
65203;HTU21D;51788;45.124;38.966;2022-08-19T03:11:37;22.73;84.08
65203;HTU21D;51788;45.124;38.966;2022-08-19T03:14:04;22.72;84.18
65203;HTU21D;51788;45.124;38.966;2022-08-19T03:16:34;22.71;84.22
65203;HTU21D;51788;45.124;38.966;2022-08-19T03:19:01;22.72;84.15
65203;HTU21D;51788;45.124;38.966;2022-08-19T03:21:29;22.79;84.00
65203;HTU21D;51788;45.124;38.966;2022-08-19T03:23:59;22.81;83.88
65203;HTU21D;51788;45.124;38.966;2022-08-19T03:26:25;22.83;83.80
65203;HTU21D;51788;45.124;38.966;2022-08-19T03:28:51;22.85;83.72
65203;HTU21D;51788;45.124;38.966;2022-08-19T03:31:22;22.88;83.67
65203;HTU21D;51788;45.124;38.966;2022-08-19T03:33:51;22.88;83.52
65203;HTU21D;51788;45.124;38.966;2022-08-19T03:36:20;22.87;83.61
65203;HTU21D;51788;45.124;38.966;2022-08-19T03:38:52;22.90;83.49
65203;HTU21D;51788;45.124;38.966;2022-08-19T03:41:24;22.97;83.33
65203;HTU21D;51788;45.124;38.966;2022-08-19T03:43:52;23.09;82.97
65203;HTU21D;51788;45.124;38.966;2022-08-19T03:46:22;23.17;82.67
65203;HTU21D;51788;45.124;38.966;2022-08-19T03:48:51;23.29;82.38
65203;HTU21D;51788;45.124;38.966;2022-08-19T03:51:21;23.39;81.97
65203;HTU21D;51788;45.124;38.966;2022-08-19T03:53:48;23.41;81.74
65203;HTU21D;51788;45.124;38.966;2022-08-19T03:56:14;23.47;81.62
65203;HTU21D;51788;45.124;38.966;2022-08-19T03:58:41;23.59;81.31
65203;HTU21D;51788;45.124;38.966;2022-08-19T04:01:12;23.69;81.03
65203;HTU21D;51788;45.124;38.966;2022-08-19T04:03:39;23.77;80.68
65203;HTU21D;51788;45.124;38.966;2022-08-19T04:06:27;23.84;80.56
65203;HTU21D;51788;45.124;38.966;2022-08-19T04:08:54;23.97;80.19
65203;HTU21D;51788;45.124;38.966;2022-08-19T04:11:26;24.10;79.72
65203;HTU21D;51788;45.124;38.966;2022-08-19T04:13:53;24.19;79.42
65203;HTU21D;51788;45.124;38.966;2022-08-19T04:16:21;24.29;79.02
65203;HTU21D;51788;45.124;38.966;2022-08-19T04:18:49;24.39;78.59
65203;HTU21D;51788;45.124;38.966;2022-08-19T04:21:18;24.47;78.38
65203;HTU21D;51788;45.124;38.966;2022-08-19T04:23:44;24.56;77.95
65203;HTU21D;51788;45.124;38.966;2022-08-19T04:26:15;24.65;77.57
65203;HTU21D;51788;45.124;38.966;2022-08-19T04:28:43;24.71;77.27
65203;HTU21D;51788;45.124;38.966;2022-08-19T04:31:23;24.78;76.94
65203;HTU21D;51788;45.124;38.966;2022-08-19T04:33:57;24.87;76.57
65203;HTU21D;51788;45.124;38.966;2022-08-19T04:36:27;24.91;76.28
65203;HTU21D;51788;45.124;38.966;2022-08-19T04:38:55;24.94;76.18
65203;HTU21D;51788;45.124;38.966;2022-08-19T04:41:22;25.00;75.92
65203;HTU21D;51788;45.124;38.966;2022-08-19T04:44:07;25.04;75.84
65203;HTU21D;51788;45.124;38.966;2022-08-19T04:46:33;25.10;75.68
65203;HTU21D;51788;45.124;38.966;2022-08-19T04:49:00;25.17;75.48
65203;HTU21D;51788;45.124;38.966;2022-08-19T04:51:26;25.29;75.25
65203;HTU21D;51788;45.124;38.966;2022-08-19T04:53:53;25.38;75.00
65203;HTU21D;51788;45.124;38.966;2022-08-19T04:56:20;25.43;74.70
65203;HTU21D;51788;45.124;38.966;2022-08-19T04:58:48;25.48;74.63
65203;HTU21D;51788;45.124;38.966;2022-08-19T05:01:22;25.59;74.31
65203;HTU21D;51788;45.124;38.966;2022-08-19T05:03:49;25.65;74.05
65203;HTU21D;51788;45.124;38.966;2022-08-19T05:06:17;25.72;73.79
65203;HTU21D;51788;45.124;38.966;2022-08-19T05:08:44;25.76;73.63
65203;HTU21D;51788;45.124;38.966;2022-08-19T05:11:16;25.89;73.28
65203;HTU21D;51788;45.124;38.966;2022-08-19T05:13:43;25.96;73.04
65203;HTU21D;51788;45.124;38.966;2022-08-19T05:16:11;25.99;72.87
65203;HTU21D;51788;45.124;38.966;2022-08-19T05:18:39;26.06;72.80
65203;HTU21D;51788;45.124;38.966;2022-08-19T05:21:24;26.13;72.64
65203;HTU21D;51788;45.124;38.966;2022-08-19T05:24:09;26.22;72.47
65203;HTU21D;51788;45.124;38.966;2022-08-19T05:26:40;26.28;72.29
65203;HTU21D;51788;45.124;38.966;2022-08-19T05:29:07;26.31;72.04
65203;HTU21D;51788;45.124;38.966;2022-08-19T05:31:35;26.21;72.13
65203;HTU21D;51788;45.124;38.966;2022-08-19T05:34:02;26.11;72.29
65203;HTU21D;51788;45.124;38.966;2022-08-19T05:36:37;26.10;72.22
65203;HTU21D;51788;45.124;38.966;2022-08-19T05:39:09;26.13;72.02
65203;HTU21D;51788;45.124;38.966;2022-08-19T05:41:35;26.19;71.68
65203;HTU21D;51788;45.124;38.966;2022-08-19T05:44:04;26.20;71.53
65203;HTU21D;51788;45.124;38.966;2022-08-19T05:46:32;26.27;71.58
65203;HTU21D;51788;45.124;38.966;2022-08-19T05:48:58;26.47;71.13
65203;HTU21D;51788;45.124;38.966;2022-08-19T05:51:25;26.60;70.59
65203;HTU21D;51788;45.124;38.966;2022-08-19T05:53:52;26.63;70.59
65203;HTU21D;51788;45.124;38.966;2022-08-19T05:56:18;26.69;70.45
65203;HTU21D;51788;45.124;38.966;2022-08-19T05:58:45;26.79;70.28
65203;HTU21D;51788;45.124;38.966;2022-08-19T06:01:14;26.90;69.90
65203;HTU21D;51788;45.124;38.966;2022-08-19T06:03:41;26.97;69.66
65203;HTU21D;51788;45.124;38.966;2022-08-19T06:06:12;27.01;69.44
65203;HTU21D;51788;45.124;38.966;2022-08-19T06:08:39;27.08;69.13
65203;HTU21D;51788;45.124;38.966;2022-08-19T06:11:14;27.13;68.74
65203;HTU21D;51788;45.124;38.966;2022-08-19T06:13:41;27.19;68.63
65203;HTU21D;51788;45.124;38.966;2022-08-19T06:16:07;27.20;68.32
65203;HTU21D;51788;45.124;38.966;2022-08-19T06:18:33;27.22;68.17
65203;HTU21D;51788;45.124;38.966;2022-08-19T06:20:59;27.31;67.65
65203;HTU21D;51788;45.124;38.966;2022-08-19T06:23:25;27.34;67.14
65203;HTU21D;51788;45.124;38.966;2022-08-19T06:25:51;27.34;67.01
65203;HTU21D;51788;45.124;38.966;2022-08-19T06:28:17;27.40;66.77
65203;HTU21D;51788;45.124;38.966;2022-08-19T06:30:43;27.41;66.58
65203;HTU21D;51788;45.124;38.966;2022-08-19T06:33:10;27.41;66.20
65203;HTU21D;51788;45.124;38.966;2022-08-19T06:35:40;27.50;65.81
65203;HTU21D;51788;45.124;38.966;2022-08-19T06:38:06;27.60;65.75
65203;HTU21D;51788;45.124;38.966;2022-08-19T06:40:32;27.64;65.37
65203;HTU21D;51788;45.124;38.966;2022-08-19T06:42:58;27.68;65.29
65203;HTU21D;51788;45.124;38.966;2022-08-19T06:45:25;27.74;64.85
65203;HTU21D;51788;45.124;38.966;2022-08-19T06:47:52;27.84;64.17
65203;HTU21D;51788;45.124;38.966;2022-08-19T06:50:24;27.89;63.69
65203;HTU21D;51788;45.124;38.966;2022-08-19T06:52:50;27.90;63.82
65203;HTU21D;51788;45.124;38.966;2022-08-19T06:55:16;28.00;63.80
65203;HTU21D;51788;45.124;38.966;2022-08-19T06:57:42;28.14;63.61
65203;HTU21D;51788;45.124;38.966;2022-08-19T07:00:11;28.21;63.19
65203;HTU21D;51788;45.124;38.966;2022-08-19T07:02:41;28.19;62.82
65203;HTU21D;51788;45.124;38.966;2022-08-19T07:05:07;28.19;63.01
65203;HTU21D;51788;45.124;38.966;2022-08-19T07:07:33;28.23;62.97
65203;HTU21D;51788;45.124;38.966;2022-08-19T07:10:00;28.31;62.63
65203;HTU21D;51788;45.124;38.966;2022-08-19T07:12:29;28.42;62.18
65203;HTU21D;51788;45.124;38.966;2022-08-19T07:14:58;28.43;62.36
65203;HTU21D;51788;45.124;38.966;2022-08-19T07:17:24;28.44;62.31
65203;HTU21D;51788;45.124;38.966;2022-08-19T07:19:50;28.49;62.05
65203;HTU21D;51788;45.124;38.966;2022-08-19T07:22:16;28.61;61.48
65203;HTU21D;51788;45.124;38.966;2022-08-19T07:24:43;28.60;61.51
65203;HTU21D;51788;45.124;38.966;2022-08-19T07:27:09;28.64;61.76
65203;HTU21D;51788;45.124;38.966;2022-08-19T07:29:36;28.75;61.58
65203;HTU21D;51788;45.124;38.966;2022-08-19T07:32:03;28.73;61.74
65203;HTU21D;51788;45.124;38.966;2022-08-19T07:34:31;28.77;61.55
65203;HTU21D;51788;45.124;38.966;2022-08-19T07:37:00;28.82;61.79
65203;HTU21D;51788;45.124;38.966;2022-08-19T07:39:29;28.91;61.50
65203;HTU21D;51788;45.124;38.966;2022-08-19T07:41:56;28.88;61.68
65203;HTU21D;51788;45.124;38.966;2022-08-19T07:44:23;28.92;61.70
65203;HTU21D;51788;45.124;38.966;2022-08-19T07:46:52;28.98;61.54
65203;HTU21D;51788;45.124;38.966;2022-08-19T07:49:19;29.06;61.57
65203;HTU21D;51788;45.124;38.966;2022-08-19T07:52:08;29.12;61.60
65203;HTU21D;51788;45.124;38.966;2022-08-19T07:54:36;29.22;61.13
65203;HTU21D;51788;45.124;38.966;2022-08-19T07:57:03;29.14;61.45
65203;HTU21D;51788;45.124;38.966;2022-08-19T07:59:30;29.22;61.31
65203;HTU21D;51788;45.124;38.966;2022-08-19T08:01:57;29.30;61.09
65203;HTU21D;51788;45.124;38.966;2022-08-19T08:04:26;29.34;61.14
65203;HTU21D;51788;45.124;38.966;2022-08-19T08:07:11;29.41;60.96
65203;HTU21D;51788;45.124;38.966;2022-08-19T08:09:56;29.41;60.86
65203;HTU21D;51788;45.124;38.966;2022-08-19T08:12:26;29.46;60.78
65203;HTU21D;51788;45.124;38.966;2022-08-19T08:15:00;29.57;60.70
65203;HTU21D;51788;45.124;38.966;2022-08-19T08:17:30;29.65;60.57
65203;HTU21D;51788;45.124;38.966;2022-08-19T08:19:57;29.62;60.16
65203;HTU21D;51788;45.124;38.966;2022-08-19T08:22:23;29.56;60.55
65203;HTU21D;51788;45.124;38.966;2022-08-19T08:25:16;29.58;60.50
65203;HTU21D;51788;45.124;38.966;2022-08-19T08:27:44;29.63;60.42
65203;HTU21D;51788;45.124;38.966;2022-08-19T08:30:17;29.74;60.30
65203;HTU21D;51788;45.124;38.966;2022-08-19T08:32:44;29.72;60.37
65203;HTU21D;51788;45.124;38.966;2022-08-19T08:35:14;29.81;60.04
65203;HTU21D;51788;45.124;38.966;2022-08-19T08:37:43;29.85;59.37
65203;HTU21D;51788;45.124;38.966;2022-08-19T08:45:53;29.62;60.19
65203;HTU21D;51788;45.124;38.966;2022-08-19T08:48:35;29.79;60.32
65203;HTU21D;51788;45.124;38.966;2022-08-19T08:51:05;29.89;59.94
65203;HTU21D;51788;45.124;38.966;2022-08-19T08:53:34;29.89;60.08
65203;HTU21D;51788;45.124;38.966;2022-08-19T08:56:03;29.92;59.20
65203;HTU21D;51788;45.124;38.966;2022-08-19T08:58:40;29.81;59.23
65203;HTU21D;51788;45.124;38.966;2022-08-19T09:01:10;29.86;58.99
65203;HTU21D;51788;45.124;38.966;2022-08-19T09:03:39;29.91;58.15
65203;HTU21D;51788;45.124;38.966;2022-08-19T09:08:47;29.95;57.61
65203;HTU21D;51788;45.124;38.966;2022-08-19T09:16:57;30.13;58.00
65203;HTU21D;51788;45.124;38.966;2022-08-19T09:19:23;30.11;58.13
65203;HTU21D;51788;45.124;38.966;2022-08-19T09:21:49;30.20;57.85
65203;HTU21D;51788;45.124;38.966;2022-08-19T09:24:16;30.15;57.99
65203;HTU21D;51788;45.124;38.966;2022-08-19T09:26:42;30.20;58.00
65203;HTU21D;51788;45.124;38.966;2022-08-19T09:29:09;30.35;57.64
65203;HTU21D;51788;45.124;38.966;2022-08-19T09:31:36;30.36;56.85
65203;HTU21D;51788;45.124;38.966;2022-08-19T09:34:02;30.37;56.57
65203;HTU21D;51788;45.124;38.966;2022-08-19T09:36:30;30.31;57.03
65203;HTU21D;51788;45.124;38.966;2022-08-19T09:39:03;30.33;56.75
65203;HTU21D;51788;45.124;38.966;2022-08-19T09:41:29;30.32;56.66
65203;HTU21D;51788;45.124;38.966;2022-08-19T09:43:57;30.27;56.68
65203;HTU21D;51788;45.124;38.966;2022-08-19T09:46:27;30.28;56.64
65203;HTU21D;51788;45.124;38.966;2022-08-19T09:48:56;30.30;56.19
65203;HTU21D;51788;45.124;38.966;2022-08-19T09:51:25;30.33;55.90
65203;HTU21D;51788;45.124;38.966;2022-08-19T09:53:53;30.38;56.07
65203;HTU21D;51788;45.124;38.966;2022-08-19T09:56:22;30.50;55.87
65203;HTU21D;51788;45.124;38.966;2022-08-19T09:58:49;30.59;55.83
65203;HTU21D;51788;45.124;38.966;2022-08-19T10:01:20;30.57;55.62
65203;HTU21D;51788;45.124;38.966;2022-08-19T10:03:48;30.62;56.03
65203;HTU21D;51788;45.124;38.966;2022-08-19T10:06:18;30.74;55.85
65203;HTU21D;51788;45.124;38.966;2022-08-19T10:08:45;30.71;55.51
65203;HTU21D;51788;45.124;38.966;2022-08-19T10:11:11;30.74;55.45
65203;HTU21D;51788;45.124;38.966;2022-08-19T10:13:40;30.81;55.18
65203;HTU21D;51788;45.124;38.966;2022-08-19T10:16:09;30.86;55.11
65203;HTU21D;51788;45.124;38.966;2022-08-19T10:18:38;30.91;54.48
65203;HTU21D;51788;45.124;38.966;2022-08-19T10:21:11;30.89;54.48
65203;HTU21D;51788;45.124;38.966;2022-08-19T10:23:39;30.93;54.04
65203;HTU21D;51788;45.124;38.966;2022-08-19T10:26:06;30.90;52.85
65203;HTU21D;51788;45.124;38.966;2022-08-19T10:28:36;30.87;52.74
65203;HTU21D;51788;45.124;38.966;2022-08-19T10:31:08;30.87;52.40
65203;HTU21D;51788;45.124;38.966;2022-08-19T10:33:35;30.87;51.69
65203;HTU21D;51788;45.124;38.966;2022-08-19T10:36:10;30.87;51.17
65203;HTU21D;51788;45.124;38.966;2022-08-19T10:38:36;30.89;51.69
65203;HTU21D;51788;45.124;38.966;2022-08-19T10:41:12;30.97;51.75
65203;HTU21D;51788;45.124;38.966;2022-08-19T10:43:40;31.00;51.87
65203;HTU21D;51788;45.124;38.966;2022-08-19T10:46:09;30.96;51.56
65203;HTU21D;51788;45.124;38.966;2022-08-19T10:48:35;30.92;51.94
65203;HTU21D;51788;45.124;38.966;2022-08-19T10:51:02;30.93;51.94
65203;HTU21D;51788;45.124;38.966;2022-08-19T10:53:47;30.92;51.95
65203;HTU21D;51788;45.124;38.966;2022-08-19T10:56:13;30.92;52.05
65203;HTU21D;51788;45.124;38.966;2022-08-19T10:58:58;30.92;52.07
65203;HTU21D;51788;45.124;38.966;2022-08-19T11:01:26;30.95;51.90
65203;HTU21D;51788;45.124;38.966;2022-08-19T11:03:52;30.95;51.98
65203;HTU21D;51788;45.124;38.966;2022-08-19T11:06:18;30.97;52.03
65203;HTU21D;51788;45.124;38.966;2022-08-19T11:08:46;31.04;51.84
65203;HTU21D;51788;45.124;38.966;2022-08-19T11:11:12;31.09;51.87
65203;HTU21D;51788;45.124;38.966;2022-08-19T11:13:40;31.13;51.92
65203;HTU21D;51788;45.124;38.966;2022-08-19T11:16:14;31.20;51.78
65203;HTU21D;51788;45.124;38.966;2022-08-19T11:18:43;31.23;51.91
65203;HTU21D;51788;45.124;38.966;2022-08-19T11:21:13;31.28;51.66
65203;HTU21D;51788;45.124;38.966;2022-08-19T11:23:40;31.36;51.38
65203;HTU21D;51788;45.124;38.966;2022-08-19T11:26:06;31.34;51.14
65203;HTU21D;51788;45.124;38.966;2022-08-19T11:28:32;31.35;51.29
65203;HTU21D;51788;45.124;38.966;2022-08-19T11:30:58;31.38;50.80
65203;HTU21D;51788;45.124;38.966;2022-08-19T11:33:24;31.37;50.80
65203;HTU21D;51788;45.124;38.966;2022-08-19T11:35:52;31.39;50.27
65203;HTU21D;51788;45.124;38.966;2022-08-19T11:38:19;31.39;50.46
65203;HTU21D;51788;45.124;38.966;2022-08-19T11:40:54;31.45;50.27
65203;HTU21D;51788;45.124;38.966;2022-08-19T11:43:20;31.44;50.28
65203;HTU21D;51788;45.124;38.966;2022-08-19T11:45:46;31.41;50.47
65203;HTU21D;51788;45.124;38.966;2022-08-19T11:48:14;31.38;50.31
65203;HTU21D;51788;45.124;38.966;2022-08-19T11:50:40;31.36;50.24
65203;HTU21D;51788;45.124;38.966;2022-08-19T11:53:07;31.46;49.96
65203;HTU21D;51788;45.124;38.966;2022-08-19T11:55:39;31.53;49.63
65203;HTU21D;51788;45.124;38.966;2022-08-19T11:58:06;31.61;49.04
65203;HTU21D;51788;45.124;38.966;2022-08-19T12:00:34;31.54;48.76
65203;HTU21D;51788;45.124;38.966;2022-08-19T12:03:02;31.52;48.81
65203;HTU21D;51788;45.124;38.966;2022-08-19T12:05:28;31.64;48.53
65203;HTU21D;51788;45.124;38.966;2022-08-19T12:07:54;31.71;48.12
65203;HTU21D;51788;45.124;38.966;2022-08-19T12:10:20;31.80;48.13
65203;HTU21D;51788;45.124;38.966;2022-08-19T12:12:47;31.73;48.17
65203;HTU21D;51788;45.124;38.966;2022-08-19T12:15:13;31.75;48.44
65203;HTU21D;51788;45.124;38.966;2022-08-19T12:17:40;31.76;48.63
65203;HTU21D;51788;45.124;38.966;2022-08-19T12:20:09;31.75;48.28
65203;HTU21D;51788;45.124;38.966;2022-08-19T12:22:37;31.72;48.46
65203;HTU21D;51788;45.124;38.966;2022-08-19T12:25:04;31.67;48.34
65203;HTU21D;51788;45.124;38.966;2022-08-19T12:27:31;31.66;48.44
65203;HTU21D;51788;45.124;38.966;2022-08-19T12:29:57;31.60;48.57
65203;HTU21D;51788;45.124;38.966;2022-08-19T12:32:23;31.55;48.60
65203;HTU21D;51788;45.124;38.966;2022-08-19T12:34:50;31.55;48.13
65203;HTU21D;51788;45.124;38.966;2022-08-19T12:37:16;31.51;47.83
65203;HTU21D;51788;45.124;38.966;2022-08-19T12:39:43;31.56;47.82
65203;HTU21D;51788;45.124;38.966;2022-08-19T12:42:10;31.63;47.63
65203;HTU21D;51788;45.124;38.966;2022-08-19T12:44:38;31.65;47.71
65203;HTU21D;51788;45.124;38.966;2022-08-19T12:47:06;31.68;47.53
65203;HTU21D;51788;45.124;38.966;2022-08-19T12:49:33;31.76;47.27
65203;HTU21D;51788;45.124;38.966;2022-08-19T12:52:04;31.84;46.97
65203;HTU21D;51788;45.124;38.966;2022-08-19T12:54:30;31.87;46.92
65203;HTU21D;51788;45.124;38.966;2022-08-19T12:56:57;31.88;46.75
65203;HTU21D;51788;45.124;38.966;2022-08-19T12:59:23;31.94;46.89
65203;HTU21D;51788;45.124;38.966;2022-08-19T13:01:49;31.97;46.86
65203;HTU21D;51788;45.124;38.966;2022-08-19T13:04:15;32.01;46.22
65203;HTU21D;51788;45.124;38.966;2022-08-19T13:06:42;31.98;46.58
65203;HTU21D;51788;45.124;38.966;2022-08-19T13:09:09;31.99;46.29
65203;HTU21D;51788;45.124;38.966;2022-08-19T13:11:35;31.98;46.56
65203;HTU21D;51788;45.124;38.966;2022-08-19T13:14:02;32.01;46.41
65203;HTU21D;51788;45.124;38.966;2022-08-19T13:16:29;32.03;46.19
65203;HTU21D;51788;45.124;38.966;2022-08-19T13:18:56;32.09;46.11
65203;HTU21D;51788;45.124;38.966;2022-08-19T13:21:25;32.20;45.87
65203;HTU21D;51788;45.124;38.966;2022-08-19T13:23:52;32.30;45.80
65203;HTU21D;51788;45.124;38.966;2022-08-19T13:26:19;32.23;45.51
65203;HTU21D;51788;45.124;38.966;2022-08-19T13:28:45;32.14;45.70
65203;HTU21D;51788;45.124;38.966;2022-08-19T13:31:33;32.13;45.85
65203;HTU21D;51788;45.124;38.966;2022-08-19T13:34:19;32.20;45.89
65203;HTU21D;51788;45.124;38.966;2022-08-19T13:36:52;32.20;45.42
65203;HTU21D;51788;45.124;38.966;2022-08-19T13:39:18;32.23;45.44
65203;HTU21D;51788;45.124;38.966;2022-08-19T13:41:46;32.23;44.89
65203;HTU21D;51788;45.124;38.966;2022-08-19T13:44:14;32.19;45.11
65203;HTU21D;51788;45.124;38.966;2022-08-19T13:46:41;32.25;45.06
65203;HTU21D;51788;45.124;38.966;2022-08-19T13:49:11;32.28;44.90
65203;HTU21D;51788;45.124;38.966;2022-08-19T13:51:38;32.29;45.09
65203;HTU21D;51788;45.124;38.966;2022-08-19T13:54:06;32.38;45.01
65203;HTU21D;51788;45.124;38.966;2022-08-19T13:56:35;32.41;44.90
65203;HTU21D;51788;45.124;38.966;2022-08-19T13:59:01;32.37;44.88
65203;HTU21D;51788;45.124;38.966;2022-08-19T14:01:27;32.28;45.29
65203;HTU21D;51788;45.124;38.966;2022-08-19T14:03:53;32.27;45.07
65203;HTU21D;51788;45.124;38.966;2022-08-19T14:06:20;32.25;45.20
65203;HTU21D;51788;45.124;38.966;2022-08-19T14:08:47;32.25;45.31
65203;HTU21D;51788;45.124;38.966;2022-08-19T14:11:14;32.24;45.43
65203;HTU21D;51788;45.124;38.966;2022-08-19T14:13:40;32.24;45.48
65203;HTU21D;51788;45.124;38.966;2022-08-19T14:16:08;32.16;45.67
65203;HTU21D;51788;45.124;38.966;2022-08-19T14:18:34;32.12;45.70
65203;HTU21D;51788;45.124;38.966;2022-08-19T14:21:00;32.09;45.86
65203;HTU21D;51788;45.124;38.966;2022-08-19T14:23:26;32.03;45.93
65203;HTU21D;51788;45.124;38.966;2022-08-19T14:25:52;31.99;46.01
65203;HTU21D;51788;45.124;38.966;2022-08-19T14:28:22;31.95;45.98
65203;HTU21D;51788;45.124;38.966;2022-08-19T14:30:48;31.93;45.85
65203;HTU21D;51788;45.124;38.966;2022-08-19T14:33:14;31.90;45.80
65203;HTU21D;51788;45.124;38.966;2022-08-19T14:35:40;31.81;45.96
65203;HTU21D;51788;45.124;38.966;2022-08-19T14:38:15;31.68;46.42
65203;HTU21D;51788;45.124;38.966;2022-08-19T14:40:42;31.57;46.67
65203;HTU21D;51788;45.124;38.966;2022-08-19T14:43:08;31.43;46.95
65203;HTU21D;51788;45.124;38.966;2022-08-19T14:45:36;31.31;47.18
65203;HTU21D;51788;45.124;38.966;2022-08-19T14:48:06;31.23;47.46
65203;HTU21D;51788;45.124;38.966;2022-08-19T14:50:33;31.13;47.73
65203;HTU21D;51788;45.124;38.966;2022-08-19T14:53:02;31.05;47.98
65203;HTU21D;51788;45.124;38.966;2022-08-19T14:55:30;30.95;48.26
65203;HTU21D;51788;45.124;38.966;2022-08-19T14:57:57;30.87;48.53
65203;HTU21D;51788;45.124;38.966;2022-08-19T15:00:24;30.81;48.74
65203;HTU21D;51788;45.124;38.966;2022-08-19T15:02:51;30.74;48.90
65203;HTU21D;51788;45.124;38.966;2022-08-19T15:05:17;30.68;49.02
65203;HTU21D;51788;45.124;38.966;2022-08-19T15:07:43;30.63;49.11
65203;HTU21D;51788;45.124;38.966;2022-08-19T15:10:11;30.56;49.24
65203;HTU21D;51788;45.124;38.966;2022-08-19T15:12:38;30.49;49.24
65203;HTU21D;51788;45.124;38.966;2022-08-19T15:15:07;30.45;49.39
65203;HTU21D;51788;45.124;38.966;2022-08-19T15:17:34;30.40;49.55
65203;HTU21D;51788;45.124;38.966;2022-08-19T15:20:04;30.36;49.68
65203;HTU21D;51788;45.124;38.966;2022-08-19T15:22:30;30.31;49.89
65203;HTU21D;51788;45.124;38.966;2022-08-19T15:24:57;30.27;50.08